Time;durP1;ratioP1;P1;durP2;ratioP2;P2;SDS_P1;SDS_P2;PMS_P1;PMS_P2;Temp;Humidity;BMP_temperature;BMP_pressure;BME280_temperature;BME280_humidity;BME280_pressure;Samples;Min_cycle;Max_cycle;Signal;HPM_P1;HPM_P2
2021/11/28 00:00:26;;;;;;;77.95;30.48;;;;;;;5.92;100.00;95816.41;5044996;28;20052;-65
2021/11/28 00:02:54;;;;;;;52.90;23.20;;;;;;;6.06;100.00;95837.78;5043908;28;20059;-67
2021/11/28 00:05:24;;;;;;;50.45;20.83;;;;;;;6.00;100.00;95844.78;5044872;28;20134;-66
2021/11/28 00:08:07;;;;;;;39.47;20.42;;;;;;;5.54;100.00;95778.13;5045243;28;20059;-67
2021/11/28 00:13:12;;;;;;;39.97;19.70;;;;;;;5.06;100.00;95849.44;5045222;28;20057;-66
2021/11/28 00:15:38;;;;;;;43.50;19.77;;;;;;;5.14;100.00;95851.94;5043228;28;20045;-66
2021/11/28 00:18:07;;;;;;;41.72;20.13;;;;;;;5.37;100.00;95849.22;5044922;28;20053;-66
2021/11/28 00:20:34;;;;;;;39.00;19.00;;;;;;;5.40;100.00;95859.47;5043204;28;20439;-66
2021/11/28 00:23:01;;;;;;;44.60;19.33;;;;;;;5.45;100.00;95850.94;5043462;28;20070;-66
2021/11/28 00:25:28;;;;;;;44.53;19.63;;;;;;;5.61;100.00;95848.84;5045035;28;20508;-66
2021/11/28 00:27:56;;;;;;;37.53;19.00;;;;;;;5.67;100.00;95852.88;5043075;28;20053;-67
2021/11/28 00:30:27;;;;;;;39.47;18.73;;;;;;;5.67;100.00;95852.88;5043124;28;20419;-65
2021/11/28 00:32:58;;;;;;;37.05;18.48;;;;;;;5.78;100.00;95870.31;5044442;28;20049;-66
2021/11/28 00:35:24;;;;;;;43.15;19.00;;;;;;;5.79;100.00;95850.72;5044424;28;20051;-66
2021/11/28 00:37:51;;;;;;;49.63;18.98;;;;;;;5.88;100.00;95847.75;5044361;28;20262;-67
2021/11/28 00:40:18;;;;;;;31.13;15.27;;;;;;;5.46;100.00;95781.09;5044347;28;20538;-67
2021/11/28 00:42:45;;;;;;;28.98;14.82;;;;;;;5.83;100.00;95856.31;5044498;28;20061;-66
2021/11/28 00:45:12;;;;;;;31.67;16.08;;;;;;;5.90;100.00;95865.44;5044324;28;20053;-66
2021/11/28 00:47:38;;;;;;;38.17;19.23;;;;;;;5.95;100.00;95864.31;5044154;28;20080;-67
2021/11/28 00:52:40;;;;;;;43.85;22.05;;;;;;;6.01;100.00;95860.91;5044041;28;20244;-66
2021/11/28 00:55:08;;;;;;;39.30;18.38;;;;;;;6.00;100.00;95869.50;5044690;28;20053;-66
2021/11/28 00:57:35;;;;;;;50.22;25.77;;;;;;;5.66;100.00;95799.06;5044447;28;20060;-67
2021/11/28 01:00:08;;;;;;;50.05;22.60;;;;;;;6.08;100.00;95854.72;5044417;28;20057;-67
2021/11/28 01:02:35;;;;;;;51.83;22.63;;;;;;;6.08;100.00;95850.03;5042851;28;20055;-67
2021/11/28 01:05:04;;;;;;;41.25;19.27;;;;;;;6.13;100.00;95826.91;5044314;28;20049;-66
2021/11/28 01:07:32;;;;;;;41.20;19.15;;;;;;;6.21;100.00;95834.09;5044358;28;20071;-67
2021/11/28 01:09:59;;;;;;;39.67;18.85;;;;;;;5.96;100.00;95787.00;5044369;28;20123;-67
2021/11/28 01:12:26;;;;;;;47.13;20.42;;;;;;;6.28;100.00;95806.69;5044031;28;20064;-66
2021/11/28 01:14:53;;;;;;;48.08;22.60;;;;;;;5.96;100.00;95761.47;5044199;28;20049;-67
2021/11/28 01:17:20;;;;;;;42.33;18.00;;;;;;;6.25;100.00;95803.88;5042818;28;20238;-67
2021/11/28 01:19:47;;;;;;;36.47;17.00;;;;;;;6.05;100.00;95808.75;5042878;28;20059;-67
2021/11/28 01:22:15;;;;;;;35.47;15.93;;;;;;;6.03;100.00;95783.56;5044176;28;20511;-67
2021/11/28 01:24:42;;;;;;;37.35;16.67;;;;;;;6.10;100.00;95795.44;5044479;28;20049;-67
2021/11/28 01:27:11;;;;;;;35.35;17.98;;;;;;;6.07;100.00;95778.91;5042682;28;20061;-65
2021/11/28 01:29:38;;;;;;;39.38;18.65;;;;;;;6.23;100.00;95809.75;5044608;28;20057;-66
2021/11/28 01:32:05;;;;;;;50.95;22.27;;;;;;;5.66;100.00;95713.91;5046108;28;20048;-68
2021/11/28 01:34:32;;;;;;;45.58;20.98;;;;;;;6.31;100.00;95811.44;5048064;28;20049;-67
2021/11/28 01:37:00;;;;;;;58.45;26.52;;;;;;;6.26;100.00;95784.25;5047539;28;20052;-68
2021/11/28 01:39:27;;;;;;;70.47;29.63;;;;;;;6.44;100.00;95801.00;5048011;28;20083;-67
2021/11/28 01:41:54;;;;;;;68.78;29.05;;;;;;;6.50;100.00;95803.03;5046057;28;20053;-66
2021/11/28 01:44:21;;;;;;;82.95;34.42;;;;;;;6.50;100.00;95781.03;5046082;28;20045;-65
2021/11/28 01:46:48;;;;;;;77.00;31.73;;;;;;;6.61;100.00;95778.44;5047688;28;20049;-67
2021/11/28 01:49:15;;;;;;;58.50;26.40;;;;;;;4.58;100.00;95456.81;5047862;28;20442;-67
2021/11/28 01:51:42;;;;;;;44.22;22.23;;;;;;;6.58;100.00;95760.69;5047134;28;20060;-67
2021/11/28 01:54:14;;;;;;;49.58;23.17;;;;;;;6.62;100.00;95789.06;5047173;28;20417;-66
2021/11/28 01:56:42;;;;;;;50.38;22.27;;;;;;;6.55;100.00;95760.66;5047501;28;20065;-67
2021/11/28 01:59:10;;;;;;;39.70;18.27;;;;;;;6.50;100.00;95775.53;5047340;28;20049;-67
2021/11/28 02:01:39;;;;;;;40.20;18.63;;;;;;;5.60;100.00;95701.69;5045702;28;20067;-67
2021/11/28 02:04:08;;;;;;;36.08;17.70;;;;;;;5.78;100.00;95771.41;5045668;28;20052;-66
2021/11/28 02:06:37;;;;;;;41.72;18.48;;;;;;;5.92;100.00;95771.63;5047240;28;20567;-66
2021/11/28 02:09:04;;;;;;;38.35;18.00;;;;;;;6.13;100.00;95767.22;5046024;28;20776;-68
2021/11/28 02:11:31;;;;;;;41.60;16.88;;;;;;;6.20;100.00;95754.75;5046899;28;20057;-67
2021/11/28 02:13:58;;;;;;;41.83;18.73;;;;;;;6.34;100.00;95755.69;5045452;28;20088;-66
2021/11/28 02:16:25;;;;;;;49.78;21.80;;;;;;;6.38;100.00;95753.78;5046943;28;20063;-66
2021/11/28 02:18:52;;;;;;;40.83;17.30;;;;;;;6.40;100.00;95748.72;5047069;28;20059;-66
2021/11/28 02:21:19;;;;;;;36.90;16.63;;;;;;;6.39;100.00;95743.56;5045284;28;20061;-66
2021/11/28 02:23:45;;;;;;;39.42;17.98;;;;;;;6.44;100.00;95737.75;5047388;28;20056;-66
2021/11/28 02:26:15;;;;;;;49.33;19.80;;;;;;;6.51;100.00;95727.63;5046858;28;20057;-68
2021/11/28 02:28:44;;;;;;;44.55;19.38;;;;;;;6.38;100.00;95706.25;5045208;28;20059;-67
2021/11/28 02:31:11;;;;;;;43.70;19.80;;;;;;;6.68;100.00;95726.22;5045319;28;20063;-67
2021/11/28 02:33:38;;;;;;;43.58;20.00;;;;;;;6.77;100.00;95715.69;5046890;28;20067;-66
2021/11/28 02:36:06;;;;;;;48.83;22.58;;;;;;;6.81;100.00;95708.28;5046515;28;20516;-67
2021/11/28 02:38:34;;;;;;;53.67;22.75;;;;;;;5.64;100.00;95516.53;5046801;28;20053;-68
2021/11/28 02:41:02;;;;;;;53.60;21.42;;;;;;;6.85;100.00;95717.34;5046142;28;20052;-66
2021/11/28 02:43:32;;;;;;;52.88;24.55;;;;;;;6.95;100.00;95714.72;5046971;28;20228;-67
2021/11/28 02:46:02;;;;;;;47.97;21.65;;;;;;;6.86;100.00;95716.97;5046786;28;20075;-66
2021/11/28 02:48:30;;;;;;;33.22;17.38;;;;;;;6.73;100.00;95726.69;5045553;28;20076;-67
2021/11/28 02:50:58;;;;;;;32.60;14.40;;;;;;;6.34;100.00;95673.19;5046410;28;20056;-66
2021/11/28 02:53:25;;;;;;;29.73;14.35;;;;;;;6.67;100.00;95736.44;5046838;28;20515;-66
2021/11/28 02:56:00;;;;;;;30.30;13.48;;;;;;;6.73;100.00;95737.69;5045114;28;20056;-66
2021/11/28 02:58:30;;;;;;;26.65;13.82;;;;;;;6.09;100.00;95636.41;5047163;28;20065;-67
2021/11/28 03:01:07;;;;;;;25.05;12.45;;;;;;;6.44;100.00;95682.72;5044731;28;20045;-67
2021/11/28 03:03:34;;;;;;;28.02;13.80;;;;;;;6.70;100.00;95718.41;5046784;28;20052;-67
2021/11/28 03:06:01;;;;;;;28.15;13.88;;;;;;;6.82;100.00;95721.66;5045800;28;20048;-68
2021/11/28 03:08:28;;;;;;;32.03;14.70;;;;;;;6.83;100.00;95714.97;5046565;28;20049;-69
2021/11/28 03:10:56;;;;;;;30.75;14.15;;;;;;;6.92;100.00;95714.69;5045721;28;20053;-67
2021/11/28 03:13:24;;;;;;;29.02;14.82;;;;;;;6.90;100.00;95712.31;5044467;28;20052;-67
2021/11/28 03:15:55;;;;;;;26.95;12.48;;;;;;;6.84;100.00;95710.28;5045645;28;20052;-67
2021/11/28 03:18:25;;;;;;;25.17;12.25;;;;;;;6.68;100.00;95710.50;5044676;28;20102;-67
2021/11/28 03:20:53;;;;;;;26.55;13.65;;;;;;;6.58;100.00;95716.69;5044199;28;20060;-66
2021/11/28 03:23:24;;;;;;;44.85;19.67;;;;;;;6.43;100.00;95706.72;5046075;28;20056;-68
2021/11/28 03:26:03;;;;;;;29.38;13.70;;;;;;;6.42;100.00;95738.13;5045502;28;20047;-67
2021/11/28 03:28:31;;;;;;;30.10;12.93;;;;;;;5.92;100.00;95667.22;5045729;28;20084;-66
2021/11/28 03:30:58;;;;;;;27.38;14.18;;;;;;;5.58;100.00;95673.81;5045236;28;20051;-66
2021/11/28 03:33:25;;;;;;;26.60;12.35;;;;;;;5.42;100.00;95690.44;5045343;28;20057;-66
2021/11/28 03:35:52;;;;;;;27.77;13.05;;;;;;;5.71;100.00;95725.41;5045321;28;20051;-67
2021/11/28 03:38:19;;;;;;;31.27;14.48;;;;;;;5.77;100.00;95712.16;5045661;28;20061;-67
2021/11/28 03:40:46;;;;;;;28.40;14.07;;;;;;;5.47;100.00;95659.16;5045561;28;20049;-67
2021/11/28 03:43:12;;;;;;;38.25;15.55;;;;;;;5.20;100.00;95636.38;5044609;28;20504;-66
2021/11/28 03:45:39;;;;;;;28.65;14.50;;;;;;;5.36;100.00;95636.25;5045201;28;20048;-66
2021/11/28 03:48:06;;;;;;;26.75;14.27;;;;;;;5.93;100.00;95701.75;5045252;28;20516;-66
2021/11/28 03:50:33;;;;;;;26.45;13.30;;;;;;;5.84;100.00;95701.25;5045941;28;20057;-66
2021/11/28 03:53:00;;;;;;;23.13;12.73;;;;;;;5.87;100.00;95686.78;5042554;28;20060;-66
2021/11/28 03:55:27;;;;;;;30.40;15.35;;;;;;;5.81;100.00;95682.75;5044125;28;20057;-66
2021/11/28 03:57:53;;;;;;;24.27;12.65;;;;;;;5.73;100.00;95687.38;5043962;28;20061;-67
2021/11/28 04:00:21;;;;;;;33.42;14.15;;;;;;;5.40;100.00;95642.56;5044711;28;20526;-66
2021/11/28 04:02:48;;;;;;;27.45;12.50;;;;;;;5.75;100.00;95697.97;5044945;28;20148;-66
2021/11/28 04:05:15;;;;;;;25.33;12.88;;;;;;;4.97;100.00;95610.16;5043580;28;20060;-66
2021/11/28 04:07:42;;;;;;;27.42;13.10;;;;;;;5.50;100.00;95683.13;5045015;28;20049;-68
2021/11/28 04:10:11;;;;;;;27.60;14.27;;;;;;;5.73;100.00;95719.53;5044792;28;20053;-67
2021/11/28 04:12:37;;;;;;;39.58;16.90;;;;;;;5.33;100.00;95662.47;5044709;28;20148;-67
2021/11/28 04:15:05;;;;;;;36.78;17.80;;;;;;;5.81;100.00;95726.72;5044716;28;20057;-67
2021/11/28 04:17:32;;;;;;;37.38;18.13;;;;;;;5.44;100.00;95679.09;5044862;28;20357;-67
2021/11/28 04:20:00;;;;;;;34.70;17.80;;;;;;;5.76;100.00;95702.31;5043182;28;20455;-67
2021/11/28 04:22:26;;;;;;;52.90;26.73;;;;;;;5.74;100.00;95690.88;5044517;28;20052;-67
2021/11/28 04:24:53;;;;;;;73.22;33.17;;;;;;;5.81;100.00;95716.53;5044769;28;20049;-66
2021/11/28 04:27:21;;;;;;;60.60;28.08;;;;;;;5.76;100.00;95702.31;5044468;28;20085;-66
2021/11/28 04:29:48;;;;;;;39.08;20.65;;;;;;;5.33;100.00;95667.16;5043411;28;20064;-68
2021/11/28 04:32:15;;;;;;;47.97;20.73;;;;;;;5.54;100.00;95711.41;5042692;28;20059;-67
2021/11/28 04:34:42;;;;;;;58.55;28.77;;;;;;;5.61;100.00;95717.00;5043342;28;20511;-67
2021/11/28 04:37:09;;;;;;;59.60;27.13;;;;;;;5.60;100.00;95710.72;5044190;28;20064;-67
2021/11/28 04:39:37;;;;;;;66.45;27.88;;;;;;;5.61;100.00;95678.56;5044783;28;20064;-66
2021/11/28 04:42:04;;;;;;;56.25;25.80;;;;;;;5.43;100.00;95639.06;5044538;28;20075;-66
2021/11/28 04:44:31;;;;;;;41.83;19.48;;;;;;;5.66;100.00;95703.75;5043497;28;20053;-67
2021/11/28 04:46:58;;;;;;;55.28;21.95;;;;;;;5.29;100.00;95661.63;5043992;28;20052;-66
2021/11/28 04:49:26;;;;;;;41.83;17.98;;;;;;;4.95;100.00;95646.19;5044691;28;20110;-67
2021/11/28 04:51:53;;;;;;;32.65;14.70;;;;;;;5.55;100.00;95708.28;5043763;28;20061;-67
2021/11/28 04:54:19;;;;;;;22.15;9.55;;;;;;;5.54;100.00;95719.66;5044123;28;20049;-67
2021/11/28 04:56:46;;;;;;;24.00;9.30;;;;;;;5.51;100.00;95709.41;5044317;28;20048;-67
2021/11/28 04:59:13;;;;;;;16.23;7.93;;;;;;;5.47;100.00;95716.81;5042659;28;20068;-68
2021/11/28 05:01:40;;;;;;;21.38;9.60;;;;;;;5.38;100.00;95738.22;5042524;28;20060;-69
2021/11/28 05:04:07;;;;;;;26.75;11.57;;;;;;;5.57;100.00;95769.13;5044494;28;20226;-68
2021/11/28 05:06:34;;;;;;;49.10;20.15;;;;;;;5.68;100.00;95794.00;5046602;28;20060;-68
2021/11/28 05:09:00;;;;;;;60.40;24.17;;;;;;;5.76;100.00;95790.22;5048388;28;20466;-68
2021/11/28 05:11:27;;;;;;;45.17;20.10;;;;;;;3.64;100.00;95450.63;5047930;28;20052;-68
2021/11/28 05:13:54;;;;;;;31.25;14.07;;;;;;;5.73;100.00;95785.47;5048008;28;20504;-68
2021/11/28 05:16:21;;;;;;;25.13;11.70;;;;;;;5.63;100.00;95795.13;5047997;28;20049;-68
2021/11/28 05:18:48;;;;;;;21.55;9.98;;;;;;;5.55;100.00;95796.16;5048384;28;20045;-69
2021/11/28 05:21:15;;;;;;;21.90;10.98;;;;;;;5.21;100.00;95763.44;5047550;28;20450;-67
2021/11/28 05:23:41;;;;;;;22.88;11.40;;;;;;;5.47;100.00;95804.69;5046633;28;20056;-66
2021/11/28 05:26:08;;;;;;;24.00;10.90;;;;;;;5.41;100.00;95806.13;5047900;28;20045;-66
2021/11/28 05:28:35;;;;;;;23.90;10.48;;;;;;;4.90;100.00;95742.53;5046684;28;20046;-66
2021/11/28 05:31:03;;;;;;;21.48;10.68;;;;;;;5.35;100.00;95835.06;5048156;28;20048;-65
2021/11/28 05:33:30;;;;;;;24.15;11.90;;;;;;;5.40;100.00;95843.00;5046441;28;20068;-66
2021/11/28 05:35:57;;;;;;;25.55;10.85;;;;;;;5.28;100.00;95843.94;5047579;28;20439;-66
2021/11/28 05:38:24;;;;;;;26.50;13.00;;;;;;;5.38;100.00;95834.31;5048031;28;20498;-66
2021/11/28 05:40:51;;;;;;;22.92;12.57;;;;;;;5.49;100.00;95829.78;5047702;28;20053;-66
2021/11/28 05:43:17;;;;;;;26.40;13.02;;;;;;;5.17;100.00;95765.34;5046198;28;20139;-66
2021/11/28 05:45:44;;;;;;;33.60;16.70;;;;;;;5.82;100.00;95849.19;5047789;28;20049;-66
2021/11/28 05:48:11;;;;;;;36.63;19.98;;;;;;;5.98;100.00;95838.84;5047956;28;20591;-68
2021/11/28 05:50:38;;;;;;;40.53;20.02;;;;;;;5.50;100.00;95792.97;5047293;28;20049;-68
2021/11/28 05:53:04;;;;;;;42.92;22.08;;;;;;;5.77;100.00;95835.78;5047576;28;20057;-67
2021/11/28 05:55:31;;;;;;;35.95;17.95;;;;;;;5.44;100.00;95789.72;5047462;28;20506;-66
2021/11/28 05:57:58;;;;;;;26.42;13.68;;;;;;;6.06;100.00;95837.78;5047220;28;20053;-67
2021/11/28 06:00:26;;;;;;;26.92;13.27;;;;;;;5.97;100.00;95812.53;5047710;28;20063;-66
2021/11/28 06:02:55;;;;;;;34.38;15.38;;;;;;;6.28;100.00;95803.94;5047284;28;20171;-68
2021/11/28 06:05:22;;;;;;;31.08;14.82;;;;;;;6.52;100.00;95822.72;5047735;28;20508;-68
2021/11/28 06:07:48;;;;;;;25.40;12.88;;;;;;;3.55;100.00;95491.16;5047181;28;20055;-67
2021/11/28 06:10:15;;;;;;;25.30;12.07;;;;;;;6.31;100.00;95833.44;5046872;28;20227;-67
2021/11/28 06:12:42;;;;;;;24.73;12.13;;;;;;;6.55;100.00;95821.97;5047409;28;20060;-65
2021/11/28 06:15:09;;;;;;;25.60;12.10;;;;;;;6.75;100.00;95804.13;5046466;28;20063;-65
2021/11/28 06:17:36;;;;;;;25.15;13.25;;;;;;;6.30;100.00;95708.13;5045322;28;21356;-64
2021/11/28 06:20:04;;;;;;;34.03;17.00;;;;;;;6.86;100.00;95785.78;5046685;28;20057;-65
2021/11/28 06:22:31;;;;;;;36.10;21.05;;;;;;;6.82;100.00;95803.41;5046765;28;20076;-65
2021/11/28 06:24:58;;;;;;;34.08;18.17;;;;;;;6.61;100.00;95781.97;5045482;28;20049;-64
2021/11/28 06:27:37;;;;;;;48.13;24.42;;;;;;;6.77;100.00;95763.28;5046652;28;20064;-65
2021/11/28 06:30:05;;;;;;;54.72;29.08;;;;;;;7.23;100.00;95813.28;5045327;28;20053;-65
2021/11/28 06:32:32;;;;;;;58.00;30.15;;;;;;;6.82;100.00;95721.66;5046513;28;20059;-64
2021/11/28 06:34:59;;;;;;;84.80;38.22;;;;;;;7.25;100.00;95794.44;5046289;28;20051;-65
2021/11/28 06:37:26;;;;;;;82.00;39.08;;;;;;;7.63;100.00;95811.28;5046301;28;20057;-64
2021/11/28 06:40:05;;;;;;;76.30;34.53;;;;;;;7.70;100.00;95816.88;5046465;28;20053;-65
2021/11/28 06:42:33;;;;;;;55.45;28.90;;;;;;;7.89;100.00;95823.31;5045971;28;20056;-65
2021/11/28 06:45:00;;;;;;;71.30;30.85;;;;;;;7.39;100.00;95729.25;5046557;28;20140;-65
2021/11/28 06:47:44;;;;;;;61.42;27.60;;;;;;;7.41;100.00;95845.34;5046271;28;20053;-64
2021/11/28 06:50:10;;;;;;;49.13;23.60;;;;;;;6.79;100.00;95740.88;5046628;28;20059;-65
2021/11/28 06:52:37;;;;;;;42.58;20.85;;;;;;;7.60;100.00;95808.53;5046071;28;20098;-66
2021/11/28 06:55:05;;;;;;;37.33;17.95;;;;;;;7.88;100.00;95816.22;5045438;28;20045;-65
2021/11/28 06:57:32;;;;;;;28.60;14.82;;;;;;;7.99;100.00;95795.81;5046364;28;20053;-64
2021/11/28 06:59:59;;;;;;;34.80;15.13;;;;;;;8.30;100.00;95833.88;5045650;28;20127;-68
2021/11/28 07:02:25;;;;;;;26.45;13.70;;;;;;;8.49;99.94;95835.53;5046335;28;20053;-67
2021/11/28 07:04:52;;;;;;;27.25;13.65;;;;;;;8.70;98.61;95835.66;5046427;28;20099;-68
2021/11/28 07:07:26;;;;;;;27.02;13.35;;;;;;;8.83;99.23;95831.38;5046055;28;20107;-69
2021/11/28 07:09:53;;;;;;;23.67;12.02;;;;;;;8.58;98.51;95773.28;5044611;28;20056;-67
2021/11/28 07:12:23;;;;;;;24.00;11.00;;;;;;;9.09;97.71;95797.91;5044788;28;20056;-67
2021/11/28 07:14:50;;;;;;;27.20;12.23;;;;;;;9.34;96.69;95815.38;5044520;28;20049;-67
2021/11/28 07:17:17;;;;;;;43.10;19.92;;;;;;;8.99;93.70;95760.03;5045679;28;20131;-67
2021/11/28 07:19:44;;;;;;;39.60;18.92;;;;;;;9.60;93.45;95850.94;5045828;28;20045;-67
2021/11/28 07:22:11;;;;;;;37.88;18.77;;;;;;;9.65;93.80;95856.06;5044379;28;20064;-67
2021/11/28 07:24:38;;;;;;;31.48;16.55;;;;;;;9.68;94.74;95857.25;5045555;28;20056;-66
2021/11/28 07:27:05;;;;;;;32.72;16.00;;;;;;;9.15;94.81;95741.13;5043408;28;20057;-66
2021/11/28 07:29:32;;;;;;;35.47;16.90;;;;;;;9.81;95.85;95875.84;5044960;28;20048;-66
2021/11/28 07:31:58;;;;;;;30.23;14.57;;;;;;;9.83;94.67;95807.09;5045440;28;20048;-66
2021/11/28 07:34:25;;;;;;;27.20;13.57;;;;;;;10.31;93.16;95847.00;5045441;28;20187;-65
2021/11/28 07:36:52;;;;;;;26.75;12.63;;;;;;;10.47;92.39;95866.75;5044213;28;20057;-67
2021/11/28 07:39:21;;;;;;;28.95;12.02;;;;;;;10.60;90.53;95864.34;5045280;28;20049;-68
2021/11/28 07:41:50;;;;;;;26.27;13.13;;;;;;;10.71;90.69;95856.81;5045164;28;20060;-66
2021/11/28 07:44:17;;;;;;;29.63;14.95;;;;;;;10.59;90.10;95802.63;5044970;28;20052;-68
2021/11/28 07:46:44;;;;;;;26.55;13.52;;;;;;;11.23;88.86;95868.88;5045067;28;20060;-66
2021/11/28 07:49:11;;;;;;;22.13;11.57;;;;;;;11.42;85.55;95860.88;5045637;28;20091;-66
2021/11/28 07:51:39;;;;;;;18.73;9.63;;;;;;;11.48;85.32;95864.00;5044709;28;20057;-65
2021/11/28 07:54:06;;;;;;;22.80;10.25;;;;;;;11.57;85.62;95883.78;5044963;28;20063;-66
2021/11/28 07:56:34;;;;;;;21.90;8.35;;;;;;;11.80;84.06;95886.81;5044594;28;20603;-66
2021/11/28 07:59:01;;;;;;;19.70;9.38;;;;;;;11.72;83.79;95863.09;5044852;28;20504;-65
2021/11/28 08:01:28;;;;;;;18.00;7.88;;;;;;;11.51;84.35;95830.72;5045258;28;20059;-66
2021/11/28 08:03:56;;;;;;;19.98;8.73;;;;;;;11.67;85.55;95877.38;5044549;28;20450;-65
2021/11/28 08:06:23;;;;;;;20.67;8.95;;;;;;;11.73;85.48;95881.31;5044702;28;20049;-66
2021/11/28 08:08:50;;;;;;;32.28;13.95;;;;;;;11.51;86.08;95829.91;5044815;28;20595;-67
2021/11/28 08:11:16;;;;;;;25.65;11.23;;;;;;;11.87;85.94;95875.69;5044753;28;20060;-68
2021/11/28 08:13:43;;;;;;;30.15;14.00;;;;;;;11.83;85.47;95869.38;5044439;28;20518;-67
2021/11/28 08:16:10;;;;;;;38.25;16.60;;;;;;;12.02;85.00;95846.63;5044687;28;20051;-67
2021/11/28 08:18:39;;;;;;;38.15;16.85;;;;;;;11.91;84.86;95823.72;5044937;28;20061;-66
2021/11/28 08:21:06;;;;;;;36.67;13.95;;;;;;;12.12;85.18;95859.66;5044682;28;20500;-66
2021/11/28 08:23:33;;;;;;;26.98;12.60;;;;;;;11.87;85.01;95775.81;5044980;28;20139;-65
2021/11/28 08:26:00;;;;;;;30.02;12.50;;;;;;;12.60;82.24;95835.38;5044936;28;20060;-67
2021/11/28 08:28:28;;;;;;;24.52;11.55;;;;;;;12.17;81.80;95762.06;5045060;28;20115;-65
2021/11/28 08:30:54;;;;;;;26.92;12.38;;;;;;;12.19;82.54;95831.81;5044535;28;20422;-65
2021/11/28 08:33:21;;;;;;;29.25;14.57;;;;;;;10.87;81.88;95548.91;5044871;28;20056;-66
2021/11/28 08:35:48;;;;;;;30.02;13.98;;;;;;;12.98;80.21;95842.50;5059463;28;20049;-67
2021/11/28 08:38:15;;;;;;;30.73;14.30;;;;;;;12.92;80.09;95829.47;5042985;28;20053;-65
2021/11/28 08:40:41;;;;;;;33.47;17.38;;;;;;;12.55;80.50;95760.81;5043958;28;20112;-65
2021/11/28 08:43:09;;;;;;;25.50;12.65;;;;;;;13.22;79.27;95855.34;5044850;28;20510;-66
2021/11/28 08:45:36;;;;;;;23.23;10.80;;;;;;;12.90;80.45;95854.91;5044268;28;20055;-67
2021/11/28 08:48:04;;;;;;;22.05;10.25;;;;;;;13.02;80.34;95846.06;5039860;28;20056;-68
2021/11/28 08:50:32;;;;;;;21.45;8.55;;;;;;;12.81;79.27;95785.13;5023471;28;20052;-69
2021/11/28 08:52:59;;;;;;;22.35;9.93;;;;;;;13.63;78.82;95855.19;5023013;28;20061;-68
2021/11/28 08:55:26;;;;;;;22.63;8.20;;;;;;;13.70;76.82;95858.66;5024207;28;20527;-67
2021/11/28 08:57:52;;;;;;;19.08;9.25;;;;;;;13.68;76.86;95813.78;5022921;28;20057;-67
2021/11/28 09:00:19;;;;;;;15.48;6.68;;;;;;;13.82;75.92;95839.81;5039116;28;20052;-68
2021/11/28 09:02:49;;;;;;;13.38;6.88;;;;;;;12.89;78.93;95808.88;5024847;28;20088;-68
2021/11/28 09:05:19;;;;;;;16.27;7.32;;;;;;;13.32;78.43;95826.63;5022736;28;20414;-68
2021/11/28 09:07:48;;;;;;;23.52;9.82;;;;;;;13.30;77.64;95773.41;5024541;28;20080;-68
2021/11/28 09:10:16;;;;;;;17.65;6.35;;;;;;;13.85;75.95;95820.28;5024319;28;20346;-68
2021/11/28 09:12:45;;;;;;;13.32;5.80;;;;;;;13.89;75.08;95837.72;5024257;28;20059;-69
2021/11/28 09:15:13;;;;;;;13.98;5.55;;;;;;;14.24;74.17;95869.81;5023838;28;20073;-68
2021/11/28 09:17:48;;;;;;;12.25;5.97;;;;;;;14.24;75.40;95864.22;5024734;28;20347;-68
2021/11/28 09:20:20;;;;;;;16.83;6.40;;;;;;;13.87;76.21;95858.81;5023956;28;20064;-67
2021/11/28 09:25:30;;;;;;;13.25;5.75;;;;;;;13.26;78.10;95850.53;5024451;28;20064;-68
2021/11/28 09:28:00;;;;;;;14.02;5.57;;;;;;;13.13;80.45;95852.28;5024016;28;20053;-67
2021/11/28 09:30:28;;;;;;;14.73;6.93;;;;;;;13.10;81.77;95858.66;5024169;28;20115;-68
2021/11/28 09:32:57;;;;;;;19.23;8.25;;;;;;;13.30;81.72;95867.97;5023710;28;20056;-67
2021/11/28 09:35:24;;;;;;;15.20;6.63;;;;;;;12.47;82.93;95764.88;5023683;28;20049;-65
2021/11/28 09:37:52;;;;;;;17.85;8.18;;;;;;;13.12;84.28;95866.63;5022730;28;20346;-68
2021/11/28 09:40:20;;;;;;;15.77;8.23;;;;;;;12.27;83.34;95722.28;5023776;28;20061;-68
2021/11/28 09:42:51;;;;;;;18.95;7.85;;;;;;;13.49;81.73;95864.53;5024299;28;20432;-68
2021/11/28 09:45:19;;;;;;;28.25;9.98;;;;;;;12.76;79.92;95688.34;5022151;28;20049;-67
2021/11/28 09:47:47;;;;;;;21.33;7.75;;;;;;;14.18;78.96;95860.34;5041000;28;20053;-68
2021/11/28 09:50:14;;;;;;;17.20;8.52;;;;;;;13.92;76.85;95824.97;5043379;28;20057;-70
2021/11/28 09:52:43;;;;;;;27.55;10.57;;;;;;;14.57;76.61;95868.88;5047075;28;20057;-68
2021/11/28 09:55:17;;;;;;;24.63;9.55;;;;;;;14.92;75.96;95876.59;5046003;28;20574;-68
2021/11/28 09:57:44;;;;;;;20.98;7.40;;;;;;;15.13;73.84;95865.03;5046790;28;20111;-69
2021/11/28 10:00:13;;;;;;;18.13;6.20;;;;;;;15.30;72.75;95858.28;5046337;28;20439;-68
2021/11/28 10:02:41;;;;;;;25.10;10.23;;;;;;;15.49;71.74;95849.16;5047340;28;20055;-67
2021/11/28 10:05:11;;;;;;;19.05;7.70;;;;;;;15.69;69.59;95824.00;5046037;28;20056;-66
2021/11/28 10:07:43;;;;;;;20.90;8.25;;;;;;;15.92;69.63;95830.25;5045934;28;20482;-67
2021/11/28 10:10:12;;;;;;;22.20;7.85;;;;;;;16.14;68.91;95834.09;5047290;28;20082;-66
2021/11/28 10:12:49;;;;;;;21.20;7.53;;;;;;;16.04;67.16;95807.22;5046859;28;20060;-66
2021/11/28 10:15:22;;;;;;;11.15;5.38;;;;;;;15.59;67.25;95836.97;5046357;28;20057;-66
2021/11/28 10:17:50;;;;;;;13.98;6.95;;;;;;;15.78;68.26;95833.38;5045778;28;20135;-65
2021/11/28 10:20:20;;;;;;;14.93;5.57;;;;;;;15.47;69.65;95839.66;5045304;28;20653;-65
2021/11/28 10:22:49;;;;;;;14.07;5.93;;;;;;;15.80;68.48;95839.31;5046909;28;20497;-65
2021/11/28 10:25:25;;;;;;;14.43;5.53;;;;;;;15.91;67.57;95830.69;5045652;28;20079;-66
2021/11/28 10:27:55;;;;;;;13.13;4.60;;;;;;;15.91;66.06;95837.06;5046917;28;20420;-67
2021/11/28 10:30:28;;;;;;;11.35;5.00;;;;;;;16.08;65.77;95835.84;5046426;28;20060;-67
2021/11/28 10:32:56;;;;;;;13.07;5.60;;;;;;;16.25;65.11;95823.47;5046888;28;20052;-66
2021/11/28 10:35:23;;;;;;;13.88;6.47;;;;;;;16.30;65.32;95822.94;5046555;28;20057;-66
2021/11/28 10:37:52;;;;;;;17.45;6.50;;;;;;;16.55;65.53;95820.31;5045375;28;20052;-67
2021/11/28 10:40:25;;;;;;;18.50;8.32;;;;;;;16.66;64.66;95806.06;5045296;28;20060;-65
2021/11/28 10:43:16;;;;;;;17.08;6.35;;;;;;;16.87;62.82;95807.50;5046788;28;20542;-66
2021/11/28 10:45:49;;;;;;;10.80;5.50;;;;;;;16.82;62.69;95810.84;5046633;28;20432;-66
2021/11/28 10:48:24;;;;;;;9.88;5.60;;;;;;;16.76;60.90;95818.19;5025204;28;20068;-66
2021/11/28 10:50:53;;;;;;;10.00;5.32;;;;;;;16.73;62.23;95810.69;5025002;28;20054;-67
2021/11/28 10:53:23;;;;;;;14.95;5.57;;;;;;;16.67;62.47;95815.25;5025894;28;20059;-66
2021/11/28 10:55:58;;;;;;;11.38;5.57;;;;;;;16.64;63.31;95822.50;5024881;28;20056;-66
2021/11/28 10:58:30;;;;;;;10.80;5.43;;;;;;;15.68;64.89;95786.91;5026846;28;20111;-66
2021/11/28 11:01:00;;;;;;;13.13;5.63;;;;;;;15.88;66.70;95821.19;5025898;28;20525;-66
2021/11/28 11:03:30;;;;;;;9.27;4.82;;;;;;;16.06;63.59;95818.75;5026342;28;20412;-65
2021/11/28 11:06:19;;;;;;;11.02;5.38;;;;;;;16.26;63.45;95796.31;5025801;28;20049;-67
2021/11/28 11:08:51;;;;;;;11.15;5.32;;;;;;;16.32;63.83;95794.56;5026430;28;20053;-68
2021/11/28 11:11:18;;;;;;;11.52;5.68;;;;;;;16.25;65.36;95789.94;5024248;28;20060;-67
2021/11/28 11:13:53;;;;;;;11.25;4.45;;;;;;;15.60;67.00;95805.06;5026000;28;20053;-67
2021/11/28 11:16:39;;;;;;;11.05;5.15;;;;;;;15.74;68.02;95799.16;5025710;28;20053;-68
2021/11/28 11:19:28;;;;;;;10.00;5.13;;;;;;;16.08;66.34;95802.34;5026269;28;20049;-67
2021/11/28 11:22:05;;;;;;;9.75;4.50;;;;;;;16.32;65.98;95794.56;5025839;28;20064;-66
2021/11/28 11:24:35;;;;;;;14.13;5.40;;;;;;;15.64;66.86;95793.81;5025987;28;20136;-66
2021/11/28 11:27:20;;;;;;;10.63;4.65;;;;;;;15.13;67.40;95739.50;5025385;28;20140;-66
2021/11/28 11:29:51;;;;;;;11.85;5.00;;;;;;;14.98;70.54;95786.41;5025469;28;20049;-66
2021/11/28 11:32:39;;;;;;;15.55;5.82;;;;;;;15.23;70.29;95802.66;5024314;28;20111;-66